Wilson Gdynia — 8PSA — position and weather

sailwx.info

Track history (hours):
 
Tides and Currents Weather Stations Pressure Air Temp Water Temp Dewpoint Dewpoint Depression Visibility Wind Speed Wind Dir Waves Ship Positions

Wilson Gdynia

Last reported at 2016-Sep-28 15:22 UTC. Time now 2016-Sep-30 04:57 UTC.
Position N 59°08' E 004°43'.

Length 88 m; draft 5.7 m.

Type: Cargo ship. MMSI: 314192000.

Date/timePositionNaut miles runAvg speedWind from/ knotsBaromVisibWave heightAir tempDewpointWater temp
2016-Sep-28 15:22N 59°08' E 004°43'26 9.0
2016-Sep-28 12:29N 58°43' E 004°53'394 8.8
2016-Sep-26 15:33N 52°10' E 003°54'18 9.0
2016-Sep-26 13:33N 51°56' E 004°13'8 3.8
2016-Sep-26 11:33N 51°54' E 004°25'0 0.0
2016-Sep-26 08:33N 51°54' E 004°25'0 0.0
2016-Sep-26 02:33N 51°54' E 004°25'0 0.0
2016-Sep-26 01:33N 51°54' E 004°25'0 0.0
2016-Sep-26 00:34N 51°54' E 004°25'0 0.0
2016-Sep-25 21:34N 51°54' E 004°25'0 0.0
2016-Sep-25 17:33N 51°54' E 004°25'0 0.0
2016-Sep-25 16:33N 51°54' E 004°25'2 1.5
2016-Sep-25 15:31N 51°54' E 004°27'0 0.0
2016-Sep-25 14:31N 51°54' E 004°27'0 0.0
2016-Sep-25 12:31N 51°54' E 004°27'0 0.0
2016-Sep-25 11:31N 51°54' E 004°27'0 0.0
2016-Sep-25 10:31N 51°54' E 004°27'0 0.0
2016-Sep-25 09:31N 51°54' E 004°27'0 0.0
2016-Sep-25 07:31N 51°54' E 004°27'0 0.0
2016-Sep-25 04:31N 51°54' E 004°27'0 0.0
2016-Sep-25 00:31N 51°54' E 004°27'0 0.0
2016-Sep-24 22:31N 51°54' E 004°27'0 0.0
2016-Sep-24 21:31N 51°54' E 004°27'0 0.0
2016-Sep-24 19:31N 51°54' E 004°27'0 0.0
2016-Sep-24 18:31N 51°54' E 004°27'0 0.0
2016-Sep-24 17:31N 51°54' E 004°27'0 0.0
2016-Sep-24 16:31N 51°54' E 004°27'0 0.0
2016-Sep-24 14:31N 51°54' E 004°27'0 0.0
2016-Sep-24 12:31N 51°54' E 004°27'0 0.0
2016-Sep-24 10:31N 51°54' E 004°27'0 0.0
2016-Sep-24 09:31N 51°54' E 004°27'0 0.0
2016-Sep-24 03:31N 51°54' E 004°27'0 0.0
2016-Sep-24 02:28N 51°54' E 004°27'0 0.0
2016-Sep-24 01:31N 51°54' E 004°27'0 0.0
2016-Sep-24 00:31N 51°54' E 004°27'0 0.0
2016-Sep-23 19:28N 51°54' E 004°27'0 0.0
2016-Sep-23 17:31N 51°54' E 004°27'0 0.0
2016-Sep-23 16:31N 51°54' E 004°27'0 0.0
2016-Sep-23 15:31N 51°54' E 004°27'0 0.0
2016-Sep-23 13:31N 51°54' E 004°27'0 0.0
2016-Sep-23 09:31N 51°54' E 004°27'0 0.0
2016-Sep-23 06:31N 51°54' E 004°27'0 0.0
2016-Sep-23 04:31N 51°54' E 004°27'0 0.0
2016-Sep-23 03:31N 51°54' E 004°27'0 0.0
2016-Sep-23 02:28N 51°54' E 004°27'0 0.0
2016-Sep-23 01:31N 51°54' E 004°27'0 0.0
2016-Sep-23 00:31N 51°54' E 004°27'0 0.0
2016-Sep-22 23:31N 51°54' E 004°27'4 1.3
2016-Sep-22 20:33N 51°54' E 004°21'0 0.0
2016-Sep-22 12:30N 51°54' E 004°21'0 0.0
2016-Sep-22 04:31N 51°54' E 004°21'0 0.0
2016-Sep-22 03:33N 51°54' E 004°21'0 0.0
2016-Sep-22 00:33N 51°54' E 004°21'0 0.0
2016-Sep-21 23:33N 51°54' E 004°21'0 0.0
2016-Sep-21 22:30N 51°54' E 004°21'0 0.0
2016-Sep-21 19:31N 51°54' E 004°21'0 0.0
2016-Sep-21 16:33N 51°54' E 004°21'0 0.0
2016-Sep-21 09:33N 51°54' E 004°21'0 0.0
2016-Sep-21 08:33N 51°54' E 004°21'0 0.0
2016-Sep-21 05:30N 51°54' E 004°21'0 0.0
2016-Sep-21 03:30N 51°54' E 004°21'0 0.0
2016-Sep-21 02:33N 51°54' E 004°21'0 0.0
2016-Sep-20 17:33N 51°54' E 004°21'0 0.0
2016-Sep-20 14:33N 51°54' E 004°21'0 0.0
2016-Sep-20 13:33N 51°54' E 004°21'0 0.0
2016-Sep-20 10:33N 51°54' E 004°21'0 0.0
2016-Sep-20 08:33N 51°54' E 004°21'0 0.0
2016-Sep-20 07:30N 51°54' E 004°21'0 0.0
2016-Sep-20 06:33N 51°54' E 004°21'0 0.0
2016-Sep-20 02:33N 51°54' E 004°21'0 0.0
2016-Sep-19 23:33N 51°54' E 004°21'0 0.0
2016-Sep-19 19:30N 51°54' E 004°21'0 0.0
2016-Sep-19 18:33N 51°54' E 004°21'0 0.0
2016-Sep-19 16:30N 51°54' E 004°21'0 0.0
2016-Sep-19 14:33N 51°54' E 004°21'0 0.0
2016-Sep-19 13:30N 51°54' E 004°21'0 0.0
2016-Sep-19 12:30N 51°54' E 004°21'0 0.0
2016-Sep-19 11:30N 51°54' E 004°21'0 0.0
2016-Sep-19 09:30N 51°54' E 004°21'0 0.0
2016-Sep-19 07:33N 51°54' E 004°21'0 0.0
2016-Sep-19 06:33N 51°54' E 004°21'0 0.0
2016-Sep-19 03:24N 51°54' E 004°21'0 0.0
2016-Sep-19 02:33N 51°54' E 004°21'0 0.0
2016-Sep-19 00:30N 51°54' E 004°21'0 0.0
2016-Sep-18 19:30N 51°54' E 004°21'0 0.0
2016-Sep-18 15:33N 51°54' E 004°21'  
Track history (hours):
 
Tides and Currents Weather Stations Pressure Air Temp Water Temp Dewpoint Dewpoint Depression Visibility Wind Speed Wind Dir Waves Ship Positions

Wilson Gdynia

Last reported at 2016-Sep-28 15:22 UTC. Time now 2016-Sep-30 04:57 UTC.
Position N 59°08' E 004°43'.

Length 88 m; draft 5.7 m.

Type: Cargo ship. MMSI: 314192000.

Date/timePositionNaut miles runAvg speedWind from/ knotsBaromVisibWave heightAir tempDewpointWater temp
2016-Sep-28 15:22N 59°08' E 004°43'26 9.0
2016-Sep-28 12:29N 58°43' E 004°53'394 8.8
2016-Sep-26 15:33N 52°10' E 003°54'18 9.0
2016-Sep-26 13:33N 51°56' E 004°13'8 3.8
2016-Sep-26 11:33N 51°54' E 004°25'0 0.0
2016-Sep-26 08:33N 51°54' E 004°25'0 0.0
2016-Sep-26 02:33N 51°54' E 004°25'0 0.0
2016-Sep-26 01:33N 51°54' E 004°25'0 0.0
2016-Sep-26 00:34N 51°54' E 004°25'0 0.0
2016-Sep-25 21:34N 51°54' E 004°25'0 0.0
2016-Sep-25 17:33N 51°54' E 004°25'0 0.0
2016-Sep-25 16:33N 51°54' E 004°25'2 1.5
2016-Sep-25 15:31N 51°54' E 004°27'0 0.0
2016-Sep-25 14:31N 51°54' E 004°27'0 0.0
2016-Sep-25 12:31N 51°54' E 004°27'0 0.0
2016-Sep-25 11:31N 51°54' E 004°27'0 0.0
2016-Sep-25 10:31N 51°54' E 004°27'0 0.0
2016-Sep-25 09:31N 51°54' E 004°27'0 0.0
2016-Sep-25 07:31N 51°54' E 004°27'0 0.0
2016-Sep-25 04:31N 51°54' E 004°27'0 0.0
2016-Sep-25 00:31N 51°54' E 004°27'0 0.0
2016-Sep-24 22:31N 51°54' E 004°27'0 0.0
2016-Sep-24 21:31N 51°54' E 004°27'0 0.0
2016-Sep-24 19:31N 51°54' E 004°27'0 0.0
2016-Sep-24 18:31N 51°54' E 004°27'0 0.0
2016-Sep-24 17:31N 51°54' E 004°27'0 0.0
2016-Sep-24 16:31N 51°54' E 004°27'0 0.0
2016-Sep-24 14:31N 51°54' E 004°27'0 0.0
2016-Sep-24 12:31N 51°54' E 004°27'0 0.0
2016-Sep-24 10:31N 51°54' E 004°27'0 0.0
2016-Sep-24 09:31N 51°54' E 004°27'0 0.0
2016-Sep-24 03:31N 51°54' E 004°27'0 0.0
2016-Sep-24 02:28N 51°54' E 004°27'0 0.0
2016-Sep-24 01:31N 51°54' E 004°27'0 0.0
2016-Sep-24 00:31N 51°54' E 004°27'0 0.0
2016-Sep-23 19:28N 51°54' E 004°27'0 0.0
2016-Sep-23 17:31N 51°54' E 004°27'0 0.0
2016-Sep-23 16:31N 51°54' E 004°27'0 0.0
2016-Sep-23 15:31N 51°54' E 004°27'0 0.0
2016-Sep-23 13:31N 51°54' E 004°27'0 0.0
2016-Sep-23 09:31N 51°54' E 004°27'0 0.0
2016-Sep-23 06:31N 51°54' E 004°27'0 0.0
2016-Sep-23 04:31N 51°54' E 004°27'0 0.0
2016-Sep-23 03:31N 51°54' E 004°27'0 0.0
2016-Sep-23 02:28N 51°54' E 004°27'0 0.0
2016-Sep-23 01:31N 51°54' E 004°27'0 0.0
2016-Sep-23 00:31N 51°54' E 004°27'0 0.0
2016-Sep-22 23:31N 51°54' E 004°27'4 1.3
2016-Sep-22 20:33N 51°54' E 004°21'0 0.0
2016-Sep-22 12:30N 51°54' E 004°21'0 0.0
2016-Sep-22 04:31N 51°54' E 004°21'0 0.0
2016-Sep-22 03:33N 51°54' E 004°21'0 0.0
2016-Sep-22 00:33N 51°54' E 004°21'0 0.0
2016-Sep-21 23:33N 51°54' E 004°21'0 0.0
2016-Sep-21 22:30N 51°54' E 004°21'0 0.0
2016-Sep-21 19:31N 51°54' E 004°21'0 0.0
2016-Sep-21 16:33N 51°54' E 004°21'0 0.0
2016-Sep-21 09:33N 51°54' E 004°21'0 0.0
2016-Sep-21 08:33N 51°54' E 004°21'0 0.0
2016-Sep-21 05:30N 51°54' E 004°21'0 0.0
2016-Sep-21 03:30N 51°54' E 004°21'0 0.0
2016-Sep-21 02:33N 51°54' E 004°21'0 0.0
2016-Sep-20 17:33N 51°54' E 004°21'0 0.0
2016-Sep-20 14:33N 51°54' E 004°21'0 0.0
2016-Sep-20 13:33N 51°54' E 004°21'0 0.0
2016-Sep-20 10:33N 51°54' E 004°21'0 0.0
2016-Sep-20 08:33N 51°54' E 004°21'0 0.0
2016-Sep-20 07:30N 51°54' E 004°21'0 0.0
2016-Sep-20 06:33N 51°54' E 004°21'0 0.0
2016-Sep-20 02:33N 51°54' E 004°21'0 0.0
2016-Sep-19 23:33N 51°54' E 004°21'0 0.0
2016-Sep-19 19:30N 51°54' E 004°21'0 0.0
2016-Sep-19 18:33N 51°54' E 004°21'0 0.0
2016-Sep-19 16:30N 51°54' E 004°21'0 0.0
2016-Sep-19 14:33N 51°54' E 004°21'0 0.0
2016-Sep-19 13:30N 51°54' E 004°21'0 0.0
2016-Sep-19 12:30N 51°54' E 004°21'0 0.0
2016-Sep-19 11:30N 51°54' E 004°21'0 0.0
2016-Sep-19 09:30N 51°54' E 004°21'0 0.0
2016-Sep-19 07:33N 51°54' E 004°21'0 0.0
2016-Sep-19 06:33N 51°54' E 004°21'0 0.0
2016-Sep-19 03:24N 51°54' E 004°21'0 0.0
2016-Sep-19 02:33N 51°54' E 004°21'0 0.0
2016-Sep-19 00:30N 51°54' E 004°21'0 0.0
2016-Sep-18 19:30N 51°54' E 004°21'0 0.0
2016-Sep-18 15:33N 51°54' E 004°21'  

Dump ship's entire track history